Time;durP1;ratioP1;P1;durP2;ratioP2;P2;SDS_P1;SDS_P2;PMS_P1;PMS_P2;Temp;Humidity;BMP_temperature;BMP_pressure;BME280_temperature;BME280_humidity;BME280_pressure;Samples;Min_cycle;Max_cycle;Signal;HPM_P1;HPM_P2
2021/05/04 00:02:04;;;;;;;4.50;1.80;;;12.30;63.50;;;;;;5030109;28;20374;-49
2021/05/04 00:04:30;;;;;;;3.63;1.40;;;12.20;75.40;;;;;;5038419;28;20288;-50
2021/05/04 00:06:57;;;;;;;2.60;1.60;;;12.10;71.50;;;;;;5039378;28;20289;-50
2021/05/04 00:09:23;;;;;;;1.90;1.77;;;12.10;68.70;;;;;;5033567;28;20677;-49
2021/05/04 00:11:51;;;;;;;2.03;1.60;;;12.10;72.70;;;;;;5039728;28;20210;-49
2021/05/04 00:14:17;;;;;;;3.67;1.63;;;12.10;68.50;;;;;;5039515;28;20264;-50
2021/05/04 00:16:44;;;;;;;6.90;2.20;;;12.10;67.80;;;;;;5038057;28;20297;-50
2021/05/04 00:19:11;;;;;;;9.53;1.60;;;12.10;65.80;;;;;;5039706;28;20210;-50
2021/05/04 00:21:37;;;;;;;6.63;1.30;;;12.00;76.30;;;;;;5039015;28;20287;-50
2021/05/04 00:24:05;;;;;;;5.80;1.57;;;12.00;81.50;;;;;;5038470;28;20310;-50
2021/05/04 00:26:32;;;;;;;1.63;1.37;;;11.90;86.50;;;;;;5036136;28;21368;-50
2021/05/04 00:28:59;;;;;;;5.20;1.63;;;11.80;87.30;;;;;;5039292;28;20204;-49
2021/05/04 00:31:25;;;;;;;4.00;1.27;;;11.70;92.20;;;;;;5038150;28;20255;-49
2021/05/04 00:33:53;;;;;;;1.33;1.23;;;11.60;95.10;;;;;;5040052;28;20231;-50
2021/05/04 00:36:20;;;;;;;1.67;1.40;;;11.50;96.90;;;;;;5033431;28;20204;-49
2021/05/04 00:38:46;;;;;;;3.40;1.90;;;11.40;99.90;;;;;;5033850;28;20219;-50
2021/05/04 00:41:13;;;;;;;6.77;1.33;;;11.20;99.90;;;;;;5038834;28;20284;-49
2021/05/04 00:43:39;;;;;;;2.43;1.80;;;11.10;99.90;;;;;;5039548;28;20295;-49
2021/05/04 00:46:05;;;;;;;4.40;1.67;;;11.00;99.90;;;;;;5038200;28;20725;-49
2021/05/04 00:48:32;;;;;;;2.90;1.50;;;10.90;99.90;;;;;;5039855;28;20236;-50
2021/05/04 00:51:00;;;;;;;2.77;1.60;;;10.80;99.90;;;;;;5038154;28;20624;-49
2021/05/04 00:53:26;;;;;;;2.20;1.60;;;10.60;99.90;;;;;;5038658;28;20328;-50
2021/05/04 00:55:53;;;;;;;4.03;2.10;;;10.40;99.90;;;;;;5038014;28;20665;-49
2021/05/04 00:58:19;;;;;;;3.33;1.83;;;10.40;99.90;;;;;;5039385;28;20318;-50
2021/05/04 01:00:46;;;;;;;4.33;1.73;;;10.30;99.90;;;;;;5034416;28;20251;-50
2021/05/04 01:03:13;;;;;;;5.23;1.90;;;10.20;99.90;;;;;;5038289;28;20237;-50
2021/05/04 01:05:39;;;;;;;2.40;2.20;;;10.10;99.90;;;;;;5033131;28;20215;-49
2021/05/04 01:08:06;;;;;;;2.93;1.90;;;10.10;99.90;;;;;;5037818;28;20286;-49
2021/05/04 01:10:32;;;;;;;2.63;1.93;;;10.00;99.90;;;;;;5038980;28;20262;-50
2021/05/04 01:12:59;;;;;;;3.87;2.00;;;9.90;99.90;;;;;;5038785;28;20239;-50
2021/05/04 01:15:26;;;;;;;2.90;1.80;;;9.80;99.90;;;;;;5036460;28;20687;-50
2021/05/04 01:17:53;;;;;;;2.47;2.23;;;9.80;99.90;;;;;;5039091;28;20583;-50
2021/05/04 01:20:20;;;;;;;2.77;2.30;;;9.80;99.90;;;;;;5037965;28;20246;-49
2021/05/04 01:22:46;;;;;;;2.70;2.30;;;9.60;99.90;;;;;;5038588;28;20211;-49
2021/05/04 01:25:14;;;;;;;2.90;2.30;;;9.60;99.90;;;;;;5038461;28;20286;-49
2021/05/04 01:27:41;;;;;;;2.80;2.13;;;9.50;99.90;;;;;;5037350;28;20309;-49
2021/05/04 01:30:08;;;;;;;3.20;2.60;;;9.50;99.90;;;;;;5037016;28;20249;-50
2021/05/04 01:32:35;;;;;;;4.10;2.73;;;9.50;99.90;;;;;;5039040;28;20263;-50
2021/05/04 01:35:05;;;;;;;3.43;2.13;;;9.40;99.90;;;;;;5033200;28;20527;-49
2021/05/04 01:37:31;;;;;;;6.23;2.50;;;9.30;99.90;;;;;;5038272;28;20230;-49
2021/05/04 01:39:58;;;;;;;3.33;2.13;;;9.30;99.90;;;;;;5036071;28;20304;-49
2021/05/04 01:42:24;;;;;;;3.20;2.30;;;9.20;99.90;;;;;;5038602;28;20210;-49
2021/05/04 01:44:51;;;;;;;3.73;2.27;;;9.10;99.90;;;;;;5037556;28;20355;-49
2021/05/04 01:47:17;;;;;;;3.13;2.00;;;9.10;99.90;;;;;;5033269;28;20276;-49
2021/05/04 01:49:45;;;;;;;2.90;2.27;;;9.00;99.90;;;;;;5039135;28;20407;-50
2021/05/04 01:52:11;;;;;;;5.30;2.30;;;9.00;99.90;;;;;;5032695;28;20701;-49
2021/05/04 01:54:38;;;;;;;2.30;2.10;;;9.00;99.90;;;;;;5038048;28;20230;-49
2021/05/04 01:57:05;;;;;;;2.73;1.90;;;9.00;99.90;;;;;;5037789;28;20345;-49
2021/05/04 01:59:32;;;;;;;2.27;1.90;;;9.00;99.90;;;;;;5036526;28;20304;-49
2021/05/04 02:01:58;;;;;;;2.30;2.10;;;8.90;99.90;;;;;;5037559;28;20375;-49
2021/05/04 02:04:25;;;;;;;3.17;2.87;;;8.90;99.90;;;;;;5038267;28;20201;-49
2021/05/04 02:06:52;;;;;;;4.53;2.63;;;8.90;99.90;;;;;;5037741;28;20216;-49
2021/05/04 02:09:19;;;;;;;2.70;2.23;;;8.80;99.90;;;;;;5037115;28;20349;-49
2021/05/04 02:11:45;;;;;;;5.37;2.40;;;8.80;99.90;;;;;;5036574;28;20215;-49
2021/05/04 02:14:12;;;;;;;2.70;2.10;;;8.80;99.90;;;;;;5037487;28;20634;-50
2021/05/04 02:16:38;;;;;;;2.60;2.20;;;8.80;99.90;;;;;;5036791;28;20208;-50
2021/05/04 02:19:05;;;;;;;3.00;2.30;;;8.80;99.90;;;;;;5037485;28;20589;-50
2021/05/04 02:21:31;;;;;;;5.73;2.20;;;8.80;99.90;;;;;;5036860;28;20274;-49
2021/05/04 02:23:58;;;;;;;4.00;2.20;;;8.80;99.90;;;;;;5037652;28;20726;-50
2021/05/04 02:26:25;;;;;;;2.40;2.20;;;8.90;99.90;;;;;;5032394;28;20326;-49
2021/05/04 02:28:51;;;;;;;2.10;1.87;;;8.90;99.90;;;;;;5037373;28;20665;-50
2021/05/04 02:31:17;;;;;;;2.57;2.30;;;8.90;99.90;;;;;;5036579;28;20748;-49
2021/05/04 02:33:44;;;;;;;3.10;2.00;;;8.90;99.90;;;;;;5037534;28;20262;-49
2021/05/04 02:36:11;;;;;;;2.10;1.87;;;8.90;99.90;;;;;;5034981;28;20273;-49
2021/05/04 02:38:39;;;;;;;6.97;2.37;;;9.00;99.90;;;;;;5036594;28;20225;-49
2021/05/04 02:41:07;;;;;;;3.87;2.00;;;9.00;99.90;;;;;;5036418;28;20230;-49
2021/05/04 02:43:34;;;;;;;2.73;2.20;;;9.10;99.90;;;;;;5037645;28;20235;-49
2021/05/04 02:46:01;;;;;;;4.47;2.33;;;9.10;99.90;;;;;;5035428;28;20258;-49
2021/05/04 02:48:28;;;;;;;3.00;2.13;;;9.10;99.90;;;;;;5037824;28;20202;-49
2021/05/04 02:50:54;;;;;;;2.27;2.00;;;9.10;99.90;;;;;;5036536;28;20248;-49
2021/05/04 02:53:21;;;;;;;3.37;1.90;;;9.20;99.90;;;;;;5036483;28;20226;-49
2021/05/04 02:55:47;;;;;;;3.23;2.20;;;9.10;99.90;;;;;;5031044;28;20202;-49
2021/05/04 02:58:14;;;;;;;4.23;2.17;;;9.10;99.90;;;;;;5037194;28;20325;-49
2021/05/04 03:00:40;;;;;;;6.47;2.97;;;9.20;99.90;;;;;;5035239;28;20707;-49
2021/05/04 03:03:07;;;;;;;3.43;2.27;;;9.20;99.90;;;;;;5037024;28;20269;-50
2021/05/04 03:05:33;;;;;;;2.37;2.10;;;9.20;99.90;;;;;;5035104;28;20237;-50
2021/05/04 03:07:59;;;;;;;2.97;1.90;;;9.20;99.90;;;;;;5031787;28;20685;-49
2021/05/04 03:10:26;;;;;;;2.07;1.70;;;9.20;99.90;;;;;;5030905;28;20233;-49
2021/05/04 03:12:52;;;;;;;2.30;1.83;;;9.10;99.90;;;;;;5037194;28;20267;-49
2021/05/04 03:15:18;;;;;;;4.97;2.50;;;9.20;99.90;;;;;;5033390;28;20819;-50
2021/05/04 03:17:45;;;;;;;2.53;2.17;;;9.20;99.90;;;;;;5036886;28;20227;-50
2021/05/04 03:20:12;;;;;;;1.60;1.50;;;9.30;99.90;;;;;;5035215;28;20294;-49
2021/05/04 03:22:38;;;;;;;2.27;2.00;;;9.30;99.90;;;;;;5036158;28;20208;-49
2021/05/04 03:25:05;;;;;;;2.27;2.07;;;9.20;99.90;;;;;;5036129;28;20347;-49
2021/05/04 03:27:31;;;;;;;2.13;1.70;;;9.10;99.90;;;;;;5037144;28;20280;-49
2021/05/04 03:29:58;;;;;;;5.93;2.50;;;9.10;99.90;;;;;;5035736;28;20237;-49
2021/05/04 03:32:24;;;;;;;5.10;1.90;;;9.20;99.90;;;;;;5036727;28;20207;-49
2021/05/04 03:34:51;;;;;;;4.70;1.93;;;9.20;99.90;;;;;;5036125;28;20629;-50
2021/05/04 03:37:17;;;;;;;2.07;1.87;;;9.10;99.90;;;;;;5034973;28;20312;-49
2021/05/04 03:39:43;;;;;;;3.13;1.83;;;9.10;99.90;;;;;;5039541;28;20207;-50
2021/05/04 03:42:10;;;;;;;2.70;2.00;;;9.00;99.90;;;;;;5040348;28;20212;-49
2021/05/04 03:44:36;;;;;;;2.77;1.67;;;9.00;99.90;;;;;;5039730;28;20884;-49
2021/05/04 03:47:02;;;;;;;2.10;1.90;;;9.10;99.90;;;;;;5040760;28;20209;-50
2021/05/04 03:49:29;;;;;;;3.23;1.67;;;9.00;99.90;;;;;;5034783;28;20579;-49
2021/05/04 03:51:55;;;;;;;2.40;1.90;;;9.10;99.90;;;;;;5038214;28;20214;-50
2021/05/04 03:54:21;;;;;;;1.67;1.57;;;9.10;99.90;;;;;;5039479;28;20418;-50
2021/05/04 03:56:48;;;;;;;2.40;1.50;;;9.10;99.90;;;;;;5039236;28;20270;-49
2021/05/04 03:59:14;;;;;;;3.77;1.70;;;9.30;99.90;;;;;;5039795;28;20771;-50
2021/05/04 04:01:40;;;;;;;2.37;1.70;;;9.30;99.90;;;;;;5039308;28;20218;-49
2021/05/04 04:04:07;;;;;;;2.63;1.73;;;9.30;99.90;;;;;;5039530;28;20230;-49
2021/05/04 04:06:33;;;;;;;1.80;1.70;;;9.30;99.90;;;;;;5038457;28;20245;-49
2021/05/04 04:09:00;;;;;;;2.20;1.83;;;9.30;99.90;;;;;;5039221;28;20245;-50
2021/05/04 04:11:26;;;;;;;2.07;1.57;;;9.20;99.90;;;;;;5034623;28;20226;-49
2021/05/04 04:13:52;;;;;;;3.23;1.50;;;9.20;99.90;;;;;;5040373;28;20273;-50
2021/05/04 04:16:19;;;;;;;3.93;1.73;;;9.30;99.90;;;;;;5037605;28;20280;-50
2021/05/04 04:18:45;;;;;;;1.70;1.60;;;9.30;99.90;;;;;;5039936;28;20267;-50
2021/05/04 04:21:11;;;;;;;2.07;1.70;;;9.40;99.90;;;;;;5039312;28;20358;-50
2021/05/04 04:23:37;;;;;;;3.87;2.07;;;9.30;99.90;;;;;;5039136;28;20362;-50
2021/05/04 04:26:04;;;;;;;2.80;1.60;;;9.40;99.90;;;;;;5039764;28;20257;-49
2021/05/04 04:28:30;;;;;;;2.87;1.33;;;9.40;99.90;;;;;;5033393;28;20300;-50
2021/05/04 04:30:56;;;;;;;4.47;1.80;;;9.40;99.90;;;;;;5037380;28;20246;-49
2021/05/04 04:33:24;;;;;;;2.20;1.37;;;9.50;99.90;;;;;;5039220;28;20622;-49
2021/05/04 04:35:50;;;;;;;3.30;1.67;;;9.50;99.90;;;;;;5040602;28;20325;-49
2021/05/04 04:38:17;;;;;;;3.30;1.30;;;9.60;99.90;;;;;;5038172;28;20276;-49
2021/05/04 04:40:44;;;;;;;4.97;1.10;;;9.70;99.90;;;;;;5038977;28;20242;-49
2021/05/04 04:43:11;;;;;;;6.60;1.63;;;9.70;99.90;;;;;;5038769;28;20237;-49
2021/05/04 04:45:38;;;;;;;1.80;1.20;;;9.70;99.90;;;;;;5038262;28;20336;-49
2021/05/04 04:48:04;;;;;;;2.23;1.30;;;9.80;99.90;;;;;;5035082;28;20612;-50
2021/05/04 04:50:31;;;;;;;3.23;1.47;;;9.80;99.90;;;;;;5033905;28;20250;-50
2021/05/04 04:52:59;;;;;;;3.43;1.63;;;9.90;99.90;;;;;;5038989;28;20239;-49
2021/05/04 04:55:25;;;;;;;1.40;1.20;;;9.90;99.90;;;;;;5038684;28;20255;-49
2021/05/04 04:57:52;;;;;;;2.73;1.13;;;9.90;99.90;;;;;;5039294;28;20225;-49
2021/05/04 05:00:19;;;;;;;2.33;1.30;;;9.90;99.90;;;;;;5038089;28;20233;-50
2021/05/04 05:02:45;;;;;;;1.30;1.20;;;9.90;99.90;;;;;;5038755;28;20211;-49
2021/05/04 05:05:12;;;;;;;3.37;1.80;;;10.00;99.90;;;;;;5038884;28;20693;-49
2021/05/04 05:07:38;;;;;;;2.43;1.30;;;10.00;99.90;;;;;;5038126;28;20295;-49
2021/05/04 05:10:05;;;;;;;1.67;1.40;;;10.00;99.90;;;;;;5032753;28;20660;-49
2021/05/04 05:12:31;;;;;;;3.10;1.37;;;10.00;99.90;;;;;;5038577;28;20295;-49
2021/05/04 05:15:01;;;;;;;2.33;1.20;;;10.00;99.90;;;;;;5037989;28;20223;-49
2021/05/04 05:17:28;;;;;;;1.67;1.10;;;10.00;99.90;;;;;;5038876;28;20292;-49
2021/05/04 05:19:54;;;;;;;2.20;1.10;;;10.00;99.90;;;;;;5038719;28;20242;-49
2021/05/04 05:22:20;;;;;;;2.23;1.40;;;9.90;99.90;;;;;;5032108;28;20204;-50
2021/05/04 05:24:47;;;;;;;1.20;1.00;;;9.90;99.90;;;;;;5038222;28;20222;-49
2021/05/04 05:27:13;;;;;;;3.30;1.67;;;9.80;99.90;;;;;;5038954;28;20235;-50
2021/05/04 05:29:41;;;;;;;1.63;1.03;;;9.70;99.90;;;;;;5038146;28;20314;-49
2021/05/04 05:32:07;;;;;;;1.70;1.37;;;9.70;99.90;;;;;;5038637;28;20497;-48
2021/05/04 05:34:34;;;;;;;1.30;1.20;;;9.60;99.90;;;;;;5038666;28;20290;-50
2021/05/04 05:37:00;;;;;;;1.63;1.20;;;9.60;99.90;;;;;;5032913;28;20235;-50
2021/05/04 05:39:27;;;;;;;4.43;0.83;;;9.50;99.90;;;;;;5037507;28;20226;-50
2021/05/04 05:41:53;;;;;;;2.73;1.20;;;9.60;99.90;;;;;;5039163;28;20300;-50
2021/05/04 05:44:20;;;;;;;3.57;1.20;;;9.60;99.90;;;;;;5037840;28;20261;-50
2021/05/04 05:46:46;;;;;;;2.30;1.30;;;9.70;99.90;;;;;;5053416;28;20218;-50
2021/05/04 05:49:13;;;;;;;2.17;0.87;;;9.70;99.90;;;;;;5033166;28;20284;-49
2021/05/04 05:51:39;;;;;;;5.07;1.10;;;9.70;99.90;;;;;;5037825;28;20209;-49
2021/05/04 05:54:06;;;;;;;1.73;0.93;;;9.70;99.90;;;;;;5038254;28;20251;-50
2021/05/04 05:56:32;;;;;;;3.90;2.13;;;9.60;99.90;;;;;;5038460;28;20207;-49
2021/05/04 05:58:58;;;;;;;2.87;1.30;;;9.70;99.90;;;;;;5032678;28;20255;-49
2021/05/04 06:01:25;;;;;;;3.03;1.40;;;9.70;99.90;;;;;;5032048;28;20204;-49
2021/05/04 06:03:51;;;;;;;3.10;1.57;;;9.70;99.90;;;;;;5036884;28;20208;-50
2021/05/04 06:06:18;;;;;;;2.20;1.50;;;9.70;99.90;;;;;;5037629;28;20613;-50
2021/05/04 06:08:45;;;;;;;4.53;1.37;;;9.60;99.90;;;;;;5036868;28;20203;-49
2021/05/04 06:11:11;;;;;;;3.73;1.43;;;9.50;99.90;;;;;;5037635;28;20326;-50
2021/05/04 06:13:38;;;;;;;4.50;1.67;;;9.60;99.90;;;;;;5033153;28;20245;-49
2021/05/04 06:16:05;;;;;;;3.00;1.63;;;9.60;99.90;;;;;;5036726;28;20205;-50
2021/05/04 06:18:32;;;;;;;4.87;2.43;;;9.60;99.90;;;;;;5037410;28;20245;-49
2021/05/04 06:20:58;;;;;;;1.97;1.37;;;9.60;99.90;;;;;;5035381;28;20523;-49
2021/05/04 06:23:25;;;;;;;2.97;2.10;;;9.70;99.90;;;;;;5037135;28;20281;-49
2021/05/04 06:25:51;;;;;;;5.03;2.17;;;9.70;99.90;;;;;;5038021;28;20266;-50
2021/05/04 06:28:18;;;;;;;3.43;2.03;;;9.70;99.90;;;;;;5031422;28;20708;-49
2021/05/04 06:30:44;;;;;;;6.30;2.30;;;9.60;99.90;;;;;;5036574;28;20626;-50
2021/05/04 06:33:13;;;;;;;4.70;1.93;;;9.40;99.90;;;;;;5037328;28;20208;-50
2021/05/04 06:35:41;;;;;;;7.30;2.20;;;9.30;99.90;;;;;;5037560;28;20214;-50
2021/05/04 06:38:13;;;;;;;4.73;2.40;;;9.20;99.90;;;;;;5034795;28;20269;-50
2021/05/04 06:40:43;;;;;;;6.50;2.40;;;9.20;99.90;;;;;;5037148;28;20292;-51
2021/05/04 06:43:10;;;;;;;6.77;2.50;;;9.10;99.90;;;;;;5037172;28;20251;-50
2021/05/04 06:45:38;;;;;;;6.67;2.37;;;9.20;99.90;;;;;;5035120;28;20214;-51
2021/05/04 06:48:05;;;;;;;4.83;2.03;;;9.00;99.90;;;;;;5037088;28;20330;-50
2021/05/04 06:50:31;;;;;;;6.93;3.67;;;9.00;99.90;;;;;;5037679;28;20281;-50
2021/05/04 06:52:57;;;;;;;3.90;2.20;;;9.10;99.90;;;;;;5030700;28;20357;-50
2021/05/04 06:55:24;;;;;;;4.80;2.87;;;9.00;99.90;;;;;;5036720;28;20293;-50
2021/05/04 06:57:50;;;;;;;2.40;2.00;;;9.00;99.90;;;;;;5037840;28;20271;-50
2021/05/04 07:00:20;;;;;;;4.97;3.20;;;9.00;99.90;;;;;;5036702;28;20217;-50
2021/05/04 07:02:47;;;;;;;5.13;2.20;;;9.10;99.90;;;;;;5032179;28;20656;-50
2021/05/04 07:05:14;;;;;;;6.93;1.90;;;9.10;99.90;;;;;;5031125;28;20216;-50
2021/05/04 07:07:40;;;;;;;3.00;1.57;;;9.10;99.90;;;;;;5030915;28;20226;-50
2021/05/04 07:10:07;;;;;;;3.47;1.63;;;9.20;99.90;;;;;;5036158;28;20237;-51
2021/05/04 07:12:33;;;;;;;3.30;1.37;;;9.20;99.90;;;;;;5037206;28;20605;-50
2021/05/04 07:15:00;;;;;;;6.20;1.83;;;9.30;99.90;;;;;;5036657;28;20314;-50
2021/05/04 07:17:27;;;;;;;3.10;1.43;;;9.30;99.90;;;;;;5036225;28;20728;-50
2021/05/04 07:19:55;;;;;;;3.93;1.63;;;9.30;99.90;;;;;;5034005;28;20196;-50
2021/05/04 07:22:25;;;;;;;3.83;1.70;;;9.30;99.90;;;;;;5035125;28;20516;-50
2021/05/04 07:24:52;;;;;;;2.80;1.50;;;9.40;99.90;;;;;;5035690;28;20237;-50
2021/05/04 07:27:18;;;;;;;7.10;1.73;;;9.40;99.90;;;;;;5037148;28;20247;-51
2021/05/04 07:29:46;;;;;;;5.43;1.87;;;9.40;99.90;;;;;;5035656;28;20355;-49
2021/05/04 07:32:15;;;;;;;3.00;1.60;;;9.50;99.90;;;;;;5036589;28;20244;-49
2021/05/04 07:34:48;;;;;;;5.47;1.70;;;9.50;99.90;;;;;;5035661;28;20221;-49
2021/05/04 07:37:15;;;;;;;6.07;2.20;;;9.60;99.90;;;;;;5031071;28;20229;-50
2021/05/04 07:39:42;;;;;;;6.03;2.20;;;9.70;99.90;;;;;;5029593;28;20262;-50
2021/05/04 07:42:10;;;;;;;6.30;2.53;;;9.80;99.90;;;;;;5036602;28;20217;-49
2021/05/04 07:44:37;;;;;;;3.13;1.53;;;9.90;99.90;;;;;;5034564;28;20319;-51
2021/05/04 07:47:05;;;;;;;3.57;1.97;;;9.90;99.90;;;;;;5035125;28;20578;-50
2021/05/04 07:49:41;;;;;;;11.63;2.20;;;10.00;99.90;;;;;;5036138;28;20277;-50
2021/05/04 07:52:07;;;;;;;9.60;2.37;;;10.30;99.90;;;;;;5035907;28;20635;-50
2021/05/04 07:54:34;;;;;;;8.70;2.07;;;10.70;99.90;;;;;;5035155;28;20204;-51
2021/05/04 07:57:01;;;;;;;9.10;2.30;;;10.70;99.90;;;;;;5036421;28;20670;-50
2021/05/04 07:59:27;;;;;;;5.20;1.97;;;10.80;99.90;;;;;;5034980;28;20259;-50
2021/05/04 08:01:54;;;;;;;4.30;2.20;;;11.10;99.90;;;;;;5036028;28;20227;-51
2021/05/04 08:04:20;;;;;;;5.90;2.40;;;11.10;99.90;;;;;;5036369;28;20349;-50
2021/05/04 08:06:47;;;;;;;5.97;2.47;;;11.00;99.90;;;;;;5035243;28;20212;-50
2021/05/04 08:09:13;;;;;;;7.27;3.00;;;10.80;99.90;;;;;;5035100;28;20244;-50
2021/05/04 08:11:39;;;;;;;5.67;2.43;;;10.80;99.90;;;;;;5036525;28;20377;-50
2021/05/04 08:14:07;;;;;;;5.80;2.33;;;10.80;99.90;;;;;;5035877;28;20209;-50
2021/05/04 08:16:33;;;;;;;7.47;2.20;;;10.70;99.90;;;;;;5034560;28;20235;-50
2021/05/04 08:19:00;;;;;;;6.43;2.73;;;10.70;99.90;;;;;;5036505;28;20286;-49
2021/05/04 08:21:32;;;;;;;10.00;2.73;;;10.70;99.90;;;;;;5035776;28;20208;-50
2021/05/04 08:24:00;;;;;;;16.50;2.87;;;10.60;99.90;;;;;;5037838;28;20644;-50
2021/05/04 08:26:26;;;;;;;7.60;2.67;;;10.50;99.90;;;;;;5039517;28;20720;-50
2021/05/04 08:28:54;;;;;;;12.23;3.20;;;10.20;99.90;;;;;;5038381;28;20243;-51
2021/05/04 08:31:21;;;;;;;5.47;2.07;;;10.00;99.90;;;;;;5038725;28;20242;-50
2021/05/04 08:33:47;;;;;;;6.87;2.13;;;9.80;99.90;;;;;;5034598;28;20208;-50
2021/05/04 08:36:13;;;;;;;1.80;1.00;;;9.60;99.90;;;;;;5038882;28;20374;-50
2021/05/04 08:38:40;;;;;;;2.17;1.00;;;9.60;99.90;;;;;;5039905;28;20289;-50
2021/05/04 08:41:08;;;;;;;3.13;1.30;;;9.50;99.90;;;;;;5037970;28;20214;-49
2021/05/04 08:43:35;;;;;;;4.67;1.20;;;9.60;99.90;;;;;;5040299;28;20261;-50
2021/05/04 08:46:02;;;;;;;2.97;1.37;;;10.10;99.90;;;;;;5038486;28;20215;-50
2021/05/04 08:48:29;;;;;;;5.30;1.53;;;10.50;99.90;;;;;;5039357;28;20211;-50
2021/05/04 08:50:58;;;;;;;4.23;1.70;;;10.70;99.90;;;;;;5038704;28;20272;-50
2021/05/04 08:53:45;;;;;;;5.50;2.53;;;10.60;99.90;;;;;;5038959;28;20266;-50
2021/05/04 08:56:13;;;;;;;7.57;2.10;;;10.60;99.90;;;;;;5039078;28;20282;-51
2021/05/04 08:58:43;;;;;;;6.40;2.13;;;10.60;99.90;;;;;;5039283;28;20259;-51
2021/05/04 09:01:13;;;;;;;4.60;1.70;;;10.60;99.90;;;;;;5037778;28;20613;-50
2021/05/04 09:03:46;;;;;;;6.30;2.50;;;10.70;99.90;;;;;;5039755;28;20203;-50
2021/05/04 09:06:21;;;;;;;6.73;2.20;;;10.70;99.90;;;;;;5033395;28;20341;-50
2021/05/04 09:09:03;;;;;;;11.33;2.07;;;10.60;99.90;;;;;;5037712;28;20257;-50
2021/05/04 09:20:00;;;;;;;4.97;1.77;;;11.30;99.90;;;;;;5038320;28;20219;-50
2021/05/04 09:22:33;;;;;;;10.57;2.17;;;11.30;99.90;;;;;;5038333;28;20208;-50
2021/05/04 09:24:59;;;;;;;4.17;1.80;;;11.00;99.90;;;;;;5038244;28;20655;-50
2021/05/04 09:27:25;;;;;;;6.27;2.10;;;10.90;99.90;;;;;;5038395;28;20271;-51
2021/05/04 09:29:59;;;;;;;7.63;3.07;;;10.80;99.90;;;;;;5037706;28;20315;-51
2021/05/04 09:32:46;;;;;;;6.80;2.03;;;10.50;99.90;;;;;;5039585;28;20442;-50
2021/05/04 09:35:13;;;;;;;8.87;1.77;;;10.30;99.90;;;;;;5031758;28;20658;-50
2021/05/04 09:37:44;;;;;;;9.07;1.47;;;10.10;99.90;;;;;;5037572;28;20271;-49
2021/05/04 09:40:29;;;;;;;4.43;1.70;;;9.70;99.90;;;;;;5038563;28;20235;-50
2021/05/04 09:43:14;;;;;;;5.80;1.70;;;9.50;99.90;;;;;;5038769;28;20637;-50
2021/05/04 09:45:53;;;;;;;12.97;2.47;;;9.70;99.90;;;;;;5038193;28;20287;-50
2021/05/04 09:48:33;;;;;;;10.47;2.30;;;10.00;99.90;;;;;;5037182;28;20214;-50
2021/05/04 09:51:11;;;;;;;7.37;2.43;;;10.00;99.90;;;;;;5037316;28;20219;-50
2021/05/04 09:53:49;;;;;;;7.73;2.20;;;9.90;99.90;;;;;;5037962;28;20294;-50
2021/05/04 09:56:18;;;;;;;5.57;1.70;;;9.80;99.90;;;;;;5038793;28;20208;-50
2021/05/04 09:58:49;;;;;;;3.30;1.40;;;9.70;99.90;;;;;;5038084;28;20304;-50
2021/05/04 10:01:18;;;;;;;8.23;1.60;;;9.60;99.90;;;;;;5036779;28;20234;-51
2021/05/04 10:03:49;;;;;;;1.80;1.00;;;9.60;99.90;;;;;;5037701;28;20206;-50
2021/05/04 10:06:17;;;;;;;8.00;1.87;;;9.70;99.90;;;;;;5037783;28;20208;-50
2021/05/04 10:08:45;;;;;;;6.20;1.40;;;10.10;99.90;;;;;;5037037;28;20538;-50
2021/05/04 10:11:14;;;;;;;8.23;1.90;;;10.60;99.90;;;;;;5038027;28;20204;-50
2021/05/04 10:13:42;;;;;;;8.13;1.57;;;10.90;99.90;;;;;;5037985;28;20612;-50
2021/05/04 10:16:10;;;;;;;2.73;1.53;;;10.60;99.90;;;;;;5036743;28;20529;-50
2021/05/04 10:18:37;;;;;;;2.43;1.20;;;10.50;99.90;;;;;;5036926;28;20217;-50
2021/05/04 10:21:06;;;;;;;2.30;0.87;;;10.60;99.90;;;;;;5037180;28;20206;-50
2021/05/04 10:23:35;;;;;;;6.90;1.23;;;10.80;99.90;;;;;;5037654;28;20252;-50
2021/05/04 10:26:14;;;;;;;4.53;1.20;;;10.70;99.90;;;;;;5032561;28;20192;-50
2021/05/04 10:28:43;;;;;;;2.43;0.90;;;10.50;99.90;;;;;;5037285;28;20315;-50
2021/05/04 10:31:12;;;;;;;6.47;0.90;;;10.40;99.90;;;;;;5037036;28;20235;-50
2021/05/04 10:33:40;;;;;;;4.53;0.83;;;10.10;99.90;;;;;;5038672;28;20205;-51
2021/05/04 10:36:32;;;;;;;4.13;0.80;;;10.50;99.90;;;;;;5036890;28;20201;-49
2021/05/04 10:39:00;;;;;;;1.73;0.73;;;10.90;99.90;;;;;;5037386;28;20236;-50
2021/05/04 10:41:27;;;;;;;3.07;0.80;;;11.10;99.90;;;;;;5036704;28;20205;-50
2021/05/04 10:44:04;;;;;;;1.73;0.70;;;11.00;99.90;;;;;;5037960;28;20546;-50
2021/05/04 10:46:41;;;;;;;0.77;0.77;;;10.90;99.90;;;;;;5036241;28;20308;-50
2021/05/04 10:49:15;;;;;;;3.13;0.60;;;10.80;99.90;;;;;;5031235;28;20675;-51
2021/05/04 10:51:52;;;;;;;2.30;0.63;;;10.80;99.90;;;;;;5036093;28;20215;-50
2021/05/04 10:54:22;;;;;;;2.17;0.67;;;11.00;99.90;;;;;;5036467;28;20577;-50
2021/05/04 10:56:58;;;;;;;2.27;0.90;;;11.00;99.90;;;;;;5036397;28;20214;-50
2021/05/04 10:59:24;;;;;;;1.83;1.00;;;10.90;99.90;;;;;;5034744;28;20271;-50
2021/05/04 11:02:09;;;;;;;1.67;0.97;;;10.60;99.90;;;;;;5031201;28;20675;-50
2021/05/04 11:04:48;;;;;;;2.80;1.10;;;10.10;99.90;;;;;;5036918;28;20267;-50
2021/05/04 11:07:54;;;;;;;4.53;1.40;;;9.90;99.90;;;;;;5035986;28;20284;-50
2021/05/04 11:10:20;;;;;;;2.27;1.20;;;9.70;99.90;;;;;;5036119;28;20261;-51
2021/05/04 11:12:47;;;;;;;4.90;1.30;;;9.70;99.90;;;;;;5037192;28;20200;-50
2021/05/04 11:15:20;;;;;;;8.13;1.53;;;9.70;99.90;;;;;;5035470;28;20290;-51
2021/05/04 11:17:46;;;;;;;5.47;1.50;;;9.80;99.90;;;;;;5036685;28;20237;-51
2021/05/04 11:20:38;;;;;;;3.60;1.30;;;9.80;99.90;;;;;;5030905;28;20330;-50
2021/05/04 11:23:08;;;;;;;4.30;1.20;;;10.00;99.90;;;;;;5036130;28;20213;-50
2021/05/04 11:25:40;;;;;;;2.37;1.07;;;10.00;99.90;;;;;;5037255;28;20197;-50
2021/05/04 11:28:08;;;;;;;2.57;0.73;;;10.20;99.90;;;;;;5035042;28;20314;-51
2021/05/04 11:30:36;;;;;;;3.63;1.17;;;10.30;99.90;;;;;;5035879;28;20570;-50
2021/05/04 11:33:26;;;;;;;3.60;1.00;;;10.40;99.90;;;;;;5036750;28;20218;-50
2021/05/04 11:35:53;;;;;;;3.17;0.80;;;10.60;99.90;;;;;;5031187;28;20311;-50
2021/05/04 11:38:22;;;;;;;1.60;0.67;;;10.80;99.90;;;;;;5019168;28;20224;-50
2021/05/04 11:40:48;;;;;;;3.03;0.80;;;10.90;99.90;;;;;;5036291;28;20209;-50
2021/05/04 11:43:17;;;;;;;2.90;0.80;;;10.80;99.90;;;;;;5034758;28;20259;-50
2021/05/04 11:45:43;;;;;;;1.57;0.57;;;11.00;99.90;;;;;;5034745;28;20208;-50
2021/05/04 11:48:11;;;;;;;2.00;0.87;;;11.00;99.90;;;;;;5036120;28;20301;-50
2021/05/04 11:50:40;;;;;;;0.70;0.60;;;11.00;99.90;;;;;;5036706;28;20263;-50
2021/05/04 11:53:11;;;;;;;1.63;0.60;;;11.00;99.90;;;;;;5035707;28;20272;-50
2021/05/04 11:55:42;;;;;;;2.33;0.90;;;11.10;99.90;;;;;;5035938;28;20241;-50
2021/05/04 11:58:28;;;;;;;2.63;0.70;;;11.30;99.90;;;;;;5037448;28;20691;-51
2021/05/04 12:01:00;;;;;;;4.43;0.73;;;11.50;99.90;;;;;;5038637;28;20624;-51
2021/05/04 12:03:27;;;;;;;1.00;0.60;;;11.90;99.90;;;;;;5041173;28;20713;-51
2021/05/04 12:05:56;;;;;;;1.13;0.70;;;12.10;99.90;;;;;;5034369;28;20252;-51
2021/05/04 12:08:24;;;;;;;1.67;0.80;;;11.70;98.20;;;;;;5039285;28;20292;-50
2021/05/04 12:10:50;;;;;;;3.93;0.83;;;11.50;99.90;;;;;;5039846;28;20207;-50
2021/05/04 12:13:37;;;;;;;0.90;0.77;;;11.40;99.90;;;;;;5039895;28;20210;-50
2021/05/04 12:16:06;;;;;;;1.43;1.23;;;11.60;98.90;;;;;;5038331;28;20210;-50
2021/05/04 12:18:35;;;;;;;1.57;0.60;;;11.50;97.10;;;;;;5039939;28;20280;-50
2021/05/04 12:21:04;;;;;;;1.57;0.70;;;11.20;96.20;;;;;;5040103;28;20209;-50
2021/05/04 12:23:33;;;;;;;1.47;1.17;;;11.10;99.70;;;;;;5039726;28;20294;-50
2021/05/04 12:26:17;;;;;;;3.27;0.80;;;11.30;99.90;;;;;;5040338;28;20251;-50
2021/05/04 12:28:56;;;;;;;3.57;0.70;;;11.50;98.20;;;;;;5039007;28;20334;-50
2021/05/04 12:31:30;;;;;;;3.00;0.70;;;11.50;95.10;;;;;;5037449;28;20624;-51
2021/05/04 12:33:57;;;;;;;2.67;0.60;;;11.50;95.00;;;;;;5039510;28;20227;-50
2021/05/04 12:36:53;;;;;;;1.43;0.53;;;11.50;96.30;;;;;;5038491;28;20280;-50
2021/05/04 12:39:27;;;;;;;1.43;0.67;;;11.40;96.70;;;;;;5033430;28;20227;-50
2021/05/04 12:41:55;;;;;;;1.70;0.70;;;11.10;99.90;;;;;;5039080;28;20242;-50
2021/05/04 12:44:26;;;;;;;0.80;0.80;;;10.90;99.90;;;;;;5038364;28;20233;-50
2021/05/04 12:47:00;;;;;;;2.80;0.50;;;10.90;99.90;;;;;;5038439;28;20212;-50
2021/05/04 12:49:34;;;;;;;1.30;0.57;;;11.00;99.90;;;;;;5037903;28;20942;-50
2021/05/04 12:52:07;;;;;;;2.80;0.70;;;11.30;97.90;;;;;;5038503;28;20528;-50
2021/05/04 12:54:35;;;;;;;2.00;0.60;;;11.40;93.00;;;;;;5038138;28;20268;-50
2021/05/04 12:57:21;;;;;;;1.13;0.70;;;11.50;94.20;;;;;;5038598;28;20688;-50
2021/05/04 12:59:48;;;;;;;1.30;0.67;;;11.70;94.10;;;;;;5037515;28;20228;-50
2021/05/04 13:02:28;;;;;;;1.50;0.60;;;11.90;94.20;;;;;;5037631;28;20307;-50
2021/05/04 13:05:02;;;;;;;2.07;0.60;;;11.80;97.60;;;;;;5039678;28;20213;-50
2021/05/04 13:13:50;;;;;;;2.50;0.80;;;11.50;90.20;;;;;;5034218;28;20213;-50
2021/05/04 13:30:15;;;;;;;2.70;0.60;;;11.60;93.60;;;;;;5036732;28;20214;-50